Time;durP1;ratioP1;P1;durP2;ratioP2;P2;SDS_P1;SDS_P2;PMS_P1;PMS_P2;Temp;Humidity;BMP_temperature;BMP_pressure;BME280_temperature;BME280_humidity;BME280_pressure;Samples;Min_cycle;Max_cycle;Signal;HPM_P1;HPM_P2
2022/03/19 00:00:54;;;;;;;90.90;41.00;;;;;;;-1.42;48.99;101053.97;221034;1270;25963;-68
2022/03/19 00:05:57;;;;;;;98.00;44.30;;;;;;;-1.51;49.85;101052.76;221396;1271;25539;-68
2022/03/19 00:11:08;;;;;;;97.00;43.60;;;;;;;-1.61;50.75;101052.52;221147;1271;23583;-68
2022/03/19 00:16:13;;;;;;;98.10;43.70;;;;;;;-1.66;50.06;101051.66;221160;1270;25374;-68
2022/03/19 00:21:24;;;;;;;105.70;45.00;;;;;;;-1.66;49.86;101046.52;221283;1271;25480;-68
2022/03/19 00:26:30;;;;;;;99.30;44.10;;;;;;;-1.66;49.83;101043.19;221073;1271;22584;-68
2022/03/19 00:31:37;;;;;;;118.60;47.10;;;;;;;-1.58;49.78;101036.95;221027;1271;22700;-68
2022/03/19 00:36:42;;;;;;;105.40;45.10;;;;;;;-1.54;49.46;101035.21;221130;1270;25409;-67
2022/03/19 00:41:45;;;;;;;95.70;41.60;;;;;;;-1.53;49.23;101032.31;221077;1271;25412;-68
2022/03/19 00:46:51;;;;;;;102.10;42.10;;;;;;;-1.51;49.38;101025.85;221176;1271;24262;-69
2022/03/19 00:51:54;;;;;;;112.90;46.00;;;;;;;-1.47;49.40;101020.15;221235;1271;25309;-68
2022/03/19 00:57:02;;;;;;;120.50;48.90;;;;;;;-1.51;49.63;101019.48;221220;1270;25331;-67
2022/03/19 01:02:04;;;;;;;101.60;43.20;;;;;;;-1.60;49.80;101020.19;221001;1270;25725;-67
2022/03/19 01:07:10;;;;;;;111.30;44.90;;;;;;;-1.71;49.99;101021.81;221330;1270;22831;-65
2022/03/19 01:12:13;;;;;;;97.70;42.50;;;;;;;-1.83;50.61;101019.52;221159;1270;24141;-67
2022/03/19 01:17:18;;;;;;;120.10;49.10;;;;;;;-1.96;51.43;101024.24;221172;1271;24307;-67
2022/03/19 01:22:26;;;;;;;109.60;47.00;;;;;;;-2.08;51.63;101029.95;221135;1270;24183;-67
2022/03/19 01:27:36;;;;;;;108.70;45.50;;;;;;;-2.18;52.04;101024.27;221295;1270;22555;-67
2022/03/19 01:32:41;;;;;;;112.40;47.00;;;;;;;-2.31;52.46;101023.76;221436;1270;22572;-66
2022/03/19 01:37:45;;;;;;;110.80;47.50;;;;;;;-2.44;52.88;101022.27;221161;1270;25293;-68
2022/03/19 01:42:50;;;;;;;106.60;43.60;;;;;;;-2.54;53.24;101017.98;221451;1270;23764;-66
2022/03/19 01:47:54;;;;;;;101.50;46.70;;;;;;;-2.65;53.85;101015.44;221390;1270;23801;-70
2022/03/19 01:52:57;;;;;;;98.90;42.70;;;;;;;-2.74;54.79;101005.83;221066;1269;22567;-67
2022/03/19 01:58:00;;;;;;;108.90;44.50;;;;;;;-2.81;55.03;100997.27;221216;1270;22571;-67
2022/03/19 02:03:03;;;;;;;122.30;46.00;;;;;;;-2.86;54.79;100991.13;221030;1270;23229;-67
2022/03/19 02:08:06;;;;;;;116.90;47.50;;;;;;;-2.88;55.07;100979.73;221185;1270;22545;-67
2022/03/19 02:13:09;;;;;;;103.40;45.00;;;;;;;-2.88;55.06;100980.22;221039;1270;22739;-67
2022/03/19 02:18:13;;;;;;;111.60;47.20;;;;;;;-2.85;55.22;100987.13;221148;1270;22655;-67
2022/03/19 02:28:44;;;;;;;107.20;45.90;;;;;;;-2.81;56.22;100991.83;221091;1270;22777;-67
2022/03/19 02:33:46;;;;;;;109.30;46.80;;;;;;;-2.84;56.27;100990.36;221362;1271;22616;-67
2022/03/19 02:38:51;;;;;;;102.40;44.30;;;;;;;-2.87;56.26;100988.33;220961;1270;22565;-67
2022/03/19 02:43:57;;;;;;;97.00;42.70;;;;;;;-2.89;56.47;100985.77;221130;1270;22562;-67
2022/03/19 02:49:15;;;;;;;92.90;40.20;;;;;;;-2.93;56.60;100984.69;221073;1270;22561;-66
2022/03/19 02:54:22;;;;;;;93.60;39.70;;;;;;;-2.97;56.61;100980.90;221152;1270;25507;-67
2022/03/19 02:59:28;;;;;;;84.90;39.00;;;;;;;-2.99;56.38;100973.77;221748;1270;22743;-67
2022/03/19 03:04:32;;;;;;;89.30;38.00;;;;;;;-3.01;56.17;100971.80;221406;1270;22827;-68
2022/03/19 03:09:50;;;;;;;85.10;37.00;;;;;;;-3.03;56.04;100975.02;221177;1270;22667;-67
2022/03/19 03:15:24;;;;;;;89.00;37.20;;;;;;;-3.06;55.90;100972.36;221197;1269;24262;-68
2022/03/19 03:20:35;;;;;;;81.50;35.90;;;;;;;-3.11;55.96;100973.58;221252;1270;22584;-67
2022/03/19 03:25:37;;;;;;;81.20;36.80;;;;;;;-3.16;56.02;100967.09;221206;1270;22717;-67
2022/03/19 03:30:45;;;;;;;84.00;37.60;;;;;;;-3.21;56.01;100973.18;221155;1270;25566;-65
2022/03/19 03:35:48;;;;;;;81.20;37.50;;;;;;;-3.24;56.17;100978.91;221235;1270;25585;-66
2022/03/19 03:40:55;;;;;;;81.40;37.80;;;;;;;-3.26;56.15;100981.17;221105;1270;25287;-66
2022/03/19 03:45:57;;;;;;;88.50;39.10;;;;;;;-3.27;56.27;100975.23;221211;1270;25602;-67
2022/03/19 03:51:12;;;;;;;83.00;35.50;;;;;;;-3.24;56.45;100976.61;221351;1270;25566;-68
2022/03/19 03:56:40;;;;;;;89.40;36.60;;;;;;;-3.23;56.70;100975.48;221223;1269;22995;-66
2022/03/19 04:02:03;;;;;;;88.50;38.40;;;;;;;-3.24;56.98;100977.33;221323;1270;22880;-68
2022/03/19 04:07:09;;;;;;;102.20;45.00;;;;;;;-3.27;57.10;100976.31;221303;1270;22515;-67
2022/03/19 04:12:11;;;;;;;111.40;48.40;;;;;;;-3.29;57.26;100975.67;221215;1270;22859;-68
2022/03/19 04:17:13;;;;;;;109.80;45.10;;;;;;;-3.29;57.50;100971.14;221211;1268;25441;-67
2022/03/19 04:22:16;;;;;;;115.80;49.60;;;;;;;-3.34;57.64;100980.17;221259;1270;22598;-66
2022/03/19 04:27:38;;;;;;;111.60;49.60;;;;;;;-3.42;57.55;100985.76;221163;1269;22958;-68
2022/03/19 04:33:04;;;;;;;113.60;47.10;;;;;;;-3.52;57.59;100986.55;221069;1270;24034;-68
2022/03/19 04:38:12;;;;;;;104.90;42.50;;;;;;;-3.61;57.90;100984.60;221430;1269;22609;-67
2022/03/19 04:43:15;;;;;;;118.60;46.60;;;;;;;-3.71;58.32;100981.10;221116;1268;23092;-67
2022/03/19 04:48:33;;;;;;;;;;;;;;;;;;;;;
2022/03/19 04:53:35;;;;;;;103.00;43.80;;;;;;;-3.81;58.53;100997.20;221342;1270;22531;-67
2022/03/19 04:58:50;;;;;;;110.00;45.30;;;;;;;-3.86;59.07;100995.35;221219;1270;25934;-68
2022/03/19 05:03:55;;;;;;;109.60;46.80;;;;;;;-3.87;59.11;100996.51;221364;1268;22577;-66
2022/03/19 05:14:18;;;;;;;92.50;41.00;;;;;;;-3.81;58.80;101007.67;221134;1270;22589;-67
2022/03/19 05:19:21;;;;;;;87.00;39.50;;;;;;;-3.74;58.52;101004.10;221051;1270;22483;-68
2022/03/19 05:24:26;;;;;;;94.40;40.30;;;;;;;-3.65;58.24;101003.27;221088;1270;25620;-68
2022/03/19 05:29:32;;;;;;;100.10;42.60;;;;;;;-3.54;57.97;101000.52;221190;1270;25657;-67
2022/03/19 05:34:37;;;;;;;89.30;37.30;;;;;;;-3.42;58.11;101001.51;221149;1270;22712;-67
2022/03/19 05:39:44;;;;;;;92.20;38.60;;;;;;;-3.31;58.03;101003.99;221090;1269;22553;-68
2022/03/19 05:44:47;;;;;;;97.30;39.50;;;;;;;-3.21;58.04;101006.23;221182;1270;22741;-68
2022/03/19 05:49:49;;;;;;;89.90;38.60;;;;;;;-3.10;57.85;101009.77;221104;1270;22464;-67
2022/03/19 05:54:51;;;;;;;85.10;36.30;;;;;;;-2.97;57.77;101015.35;221358;1270;22578;-67
2022/03/19 05:59:54;;;;;;;82.50;37.60;;;;;;;-2.80;57.68;101017.30;221216;1270;23405;-68
2022/03/19 06:04:57;;;;;;;82.50;36.70;;;;;;;-2.62;57.50;101019.52;221545;1270;23664;-67
2022/03/19 06:09:59;;;;;;;86.10;35.70;;;;;;;-2.44;57.19;101020.80;221307;1270;22532;-67
2022/03/19 06:15:05;;;;;;;95.40;40.00;;;;;;;-2.22;57.07;101024.33;221361;1270;22476;-67
2022/03/19 06:20:22;;;;;;;95.90;40.70;;;;;;;-2.00;56.97;101026.70;221578;1270;22961;-67
2022/03/19 06:25:27;;;;;;;86.50;38.80;;;;;;;-1.83;56.78;101028.25;221342;1269;24329;-66
2022/03/19 06:30:37;;;;;;;81.20;36.90;;;;;;;-1.65;56.87;101031.70;221168;1268;22638;-68
2022/03/19 06:41:13;;;;;;;79.10;38.00;;;;;;;-1.26;56.16;101031.85;221108;1270;24434;-67
2022/03/19 06:46:15;;;;;;;83.10;38.60;;;;;;;-1.08;56.02;101033.23;221225;1270;22479;-68
2022/03/19 06:51:25;;;;;;;74.40;36.80;;;;;;;-0.91;55.84;101033.09;221170;1270;22571;-68
2022/03/19 06:56:28;;;;;;;58.20;30.30;;;;;;;-0.77;55.61;101029.91;221568;1270;24298;-67
2022/03/19 07:01:31;;;;;;;63.60;32.10;;;;;;;-0.61;55.16;101030.85;221366;1270;24227;-68
2022/03/19 07:06:37;;;;;;;56.70;29.30;;;;;;;-0.41;54.61;101031.97;221256;1270;23006;-68
2022/03/19 07:12:01;;;;;;;59.10;29.40;;;;;;;-0.21;54.42;101028.29;221082;1270;24144;-67
2022/03/19 07:17:04;;;;;;;50.20;27.90;;;;;;;0.02;54.03;101029.05;221133;1269;22510;-67
2022/03/19 07:22:07;;;;;;;48.10;24.40;;;;;;;0.27;53.12;101030.04;221137;1268;23524;-68
2022/03/19 07:27:10;;;;;;;46.70;25.00;;;;;;;0.54;52.62;101028.25;220763;1270;378221;-67
2022/03/19 07:32:15;;;;;;;44.90;24.10;;;;;;;0.79;52.20;101033.60;221275;1269;22701;-68
2022/03/19 07:37:17;;;;;;;42.40;22.70;;;;;;;1.05;51.75;101033.90;221129;1270;23074;-68
2022/03/19 07:42:20;;;;;;;44.40;22.80;;;;;;;1.26;50.84;101038.09;221288;1270;22691;-68
2022/03/19 07:47:26;;;;;;;45.80;23.70;;;;;;;1.46;50.73;101039.59;221080;1269;22522;-67
2022/03/19 07:52:33;;;;;;;44.80;23.40;;;;;;;1.68;50.47;101040.67;221510;1270;22528;-68
2022/03/19 07:57:35;;;;;;;38.70;21.40;;;;;;;1.93;50.34;101036.84;221463;1268;25835;-66
2022/03/19 08:02:42;;;;;;;36.50;19.40;;;;;;;2.20;49.63;101036.71;222022;1268;22467;-67
2022/03/19 08:07:45;;;;;;;35.20;18.10;;;;;;;2.47;48.74;101038.30;221428;1270;25322;-68
2022/03/19 08:12:48;;;;;;;28.60;17.10;;;;;;;2.72;48.17;101039.63;221155;1270;25210;-67
2022/03/19 08:17:51;;;;;;;34.60;18.50;;;;;;;2.96;47.62;101040.73;221707;1270;25219;-68
2022/03/19 08:22:53;;;;;;;25.70;14.30;;;;;;;3.23;46.89;101041.36;221370;1269;22605;-69
2022/03/19 08:27:59;;;;;;;21.30;13.00;;;;;;;3.51;45.94;101034.39;221589;1268;22682;-69
2022/03/19 08:33:07;;;;;;;23.40;12.80;;;;;;;3.80;45.39;101033.13;221529;1270;22942;-68
2022/03/19 08:43:30;;;;;;;17.80;10.70;;;;;;;4.36;43.92;101028.91;221380;1269;22679;-68
2022/03/19 08:48:33;;;;;;;17.90;11.20;;;;;;;4.62;43.39;101024.57;221581;1269;22603;-68
2022/03/19 08:53:36;;;;;;;16.70;9.90;;;;;;;4.93;42.44;101025.74;221276;1270;22715;-68
2022/03/19 08:58:38;;;;;;;18.40;10.30;;;;;;;5.16;41.93;101023.09;221575;1269;22573;-69
2022/03/19 09:03:41;;;;;;;17.20;9.20;;;;;;;5.34;40.82;101018.38;221326;1270;25346;-69
2022/03/19 09:08:57;;;;;;;15.10;8.30;;;;;;;5.52;40.02;101013.39;221407;1268;22562;-68
2022/03/19 09:14:01;;;;;;;15.70;8.80;;;;;;;5.67;39.14;101010.39;221519;1270;22530;-69
2022/03/19 09:19:15;;;;;;;13.60;8.90;;;;;;;5.78;38.73;101010.14;221249;1270;25376;-68
2022/03/19 09:24:20;;;;;;;12.00;7.70;;;;;;;5.92;38.60;101003.90;221308;1271;23829;-68
2022/03/19 09:29:22;;;;;;;9.70;6.10;;;;;;;6.15;37.93;101002.85;221325;1271;24237;-68
2022/03/19 09:34:24;;;;;;;8.20;5.30;;;;;;;6.37;37.86;101004.23;221541;1271;24636;-69
2022/03/19 09:39:43;;;;;;;6.80;4.60;;;;;;;6.66;36.76;101006.55;221444;1271;22526;-68
2022/03/19 09:45:08;;;;;;;9.20;5.60;;;;;;;6.98;36.66;101004.59;221452;1271;22913;-68
2022/03/19 09:50:14;;;;;;;9.70;5.80;;;;;;;7.12;35.95;101002.03;221505;1271;22519;-69
2022/03/19 09:55:17;;;;;;;10.20;4.80;;;;;;;7.23;35.37;100997.69;221440;1271;24205;-68
2022/03/19 10:00:24;;;;;;;10.00;5.60;;;;;;;7.33;34.59;100992.48;221645;1271;24290;-68
2022/03/19 10:10:55;;;;;;;7.10;3.70;;;;;;;7.52;33.01;100986.27;221415;1270;23507;-68
2022/03/19 10:15:58;;;;;;;7.80;3.70;;;;;;;7.64;32.37;100989.08;221652;1270;24259;-68
2022/03/19 10:21:15;;;;;;;7.90;4.30;;;;;;;7.74;31.95;100991.48;221224;1268;22557;-69
2022/03/19 10:26:34;;;;;;;6.80;4.70;;;;;;;7.80;32.08;100986.77;221502;1270;24262;-68
2022/03/19 10:31:40;;;;;;;7.00;4.70;;;;;;;7.94;31.80;100990.90;221628;1268;22473;-69
2022/03/19 10:36:45;;;;;;;7.30;4.60;;;;;;;8.02;31.47;100979.69;221675;1268;22895;-68
2022/03/19 10:41:51;;;;;;;7.10;4.50;;;;;;;8.10;31.67;100983.97;221623;1270;22486;-68
2022/03/19 10:46:59;;;;;;;9.80;5.50;;;;;;;8.18;31.12;100981.09;221707;1270;24265;-68
2022/03/19 10:52:05;;;;;;;6.60;4.90;;;;;;;8.28;30.70;100975.65;221192;1271;23005;-67
2022/03/19 10:57:07;;;;;;;9.70;6.40;;;;;;;8.29;30.70;100977.81;221133;1270;22470;-68
2022/03/19 11:02:23;;;;;;;13.20;6.00;;;;;;;8.30;30.59;100978.59;221262;1270;22597;-67
2022/03/19 11:07:32;;;;;;;8.90;6.00;;;;;;;8.36;31.52;100978.49;221480;1270;22597;-67
2022/03/19 11:12:52;;;;;;;9.30;5.60;;;;;;;8.45;30.65;100972.60;221252;1269;22471;-68
2022/03/19 11:18:01;;;;;;;10.00;5.80;;;;;;;8.47;30.15;100966.95;221549;1271;24236;-67
2022/03/19 11:23:10;;;;;;;8.70;5.40;;;;;;;8.50;30.48;100962.19;221641;1270;24189;-68
2022/03/19 11:28:16;;;;;;;7.00;4.30;;;;;;;8.67;30.61;100957.64;221435;1270;23838;-67
2022/03/19 11:33:22;;;;;;;9.00;4.60;;;;;;;8.86;30.19;100955.98;221311;1270;22469;-68
2022/03/19 11:38:25;;;;;;;7.90;5.10;;;;;;;9.01;29.85;100950.38;221377;1270;22586;-69
2022/03/19 11:43:43;;;;;;;7.40;5.40;;;;;;;9.08;29.40;100949.27;221715;1269;22473;-67
2022/03/19 11:48:56;;;;;;;8.80;5.60;;;;;;;9.10;28.79;100944.14;221384;1270;22840;-67
2022/03/19 11:54:19;;;;;;;6.20;4.50;;;;;;;9.06;28.91;100939.98;221392;1270;25313;-67
2022/03/19 11:59:25;;;;;;;7.50;4.80;;;;;;;9.12;28.57;100932.73;221449;1270;22758;-68
2022/03/19 12:04:48;;;;;;;5.00;4.00;;;;;;;9.14;28.49;100938.08;221100;1270;22576;-68
2022/03/19 12:09:59;;;;;;;6.50;4.50;;;;;;;9.13;27.97;100936.36;221048;1270;22663;-68
2022/03/19 12:15:33;;;;;;;8.20;5.80;;;;;;;9.10;27.55;100927.55;221124;1270;22850;-69
2022/03/19 12:20:44;;;;;;;11.40;7.40;;;;;;;9.18;28.55;100931.98;221078;1270;25317;-69
2022/03/19 12:26:03;;;;;;;6.70;4.80;;;;;;;9.30;27.84;100935.58;221259;1270;25889;-69
2022/03/19 12:31:11;;;;;;;7.10;5.00;;;;;;;9.27;27.69;100932.96;221193;1270;22567;-69
2022/03/19 12:36:17;;;;;;;6.70;4.80;;;;;;;9.27;28.17;100929.02;221175;1270;22560;-68
2022/03/19 12:41:32;;;;;;;8.00;5.40;;;;;;;9.42;28.26;100928.45;221228;1270;24206;-68
2022/03/19 12:47:02;;;;;;;7.40;5.30;;;;;;;9.43;28.14;100924.00;221197;1270;22477;-68
2022/03/19 12:52:10;;;;;;;7.20;4.90;;;;;;;9.34;27.34;100920.98;221531;1270;22651;-68
2022/03/19 12:57:17;;;;;;;8.30;5.30;;;;;;;9.29;27.71;100921.27;221368;1270;22804;-69
2022/03/19 13:02:26;;;;;;;7.40;5.20;;;;;;;9.30;27.39;100917.91;221160;1270;22574;-70
2022/03/19 13:07:40;;;;;;;8.70;5.40;;;;;;;9.30;26.94;100913.23;221150;1270;25286;-69
2022/03/19 13:12:43;;;;;;;6.50;5.00;;;;;;;9.29;27.47;100912.98;221257;1268;22478;-69
2022/03/19 13:17:48;;;;;;;8.50;5.00;;;;;;;9.26;27.34;100910.56;221345;1270;22577;-69
2022/03/19 13:23:04;;;;;;;8.60;4.90;;;;;;;9.24;27.39;100913.50;221050;1270;22536;-69
2022/03/19 13:28:10;;;;;;;7.60;4.60;;;;;;;9.20;27.18;100912.05;221014;1270;22800;-68
2022/03/19 13:33:17;;;;;;;8.00;4.80;;;;;;;9.13;26.77;100913.20;221362;1270;22712;-68
2022/03/19 13:38:38;;;;;;;11.50;5.50;;;;;;;9.04;26.91;100911.14;221138;1270;24235;-67
2022/03/19 13:43:41;;;;;;;7.40;5.00;;;;;;;9.02;27.59;100909.82;220952;1270;24205;-69
2022/03/19 13:49:10;;;;;;;6.80;4.70;;;;;;;9.03;27.39;100905.56;221148;1270;22556;-72
2022/03/19 13:54:13;;;;;;;8.10;5.90;;;;;;;9.05;27.09;100906.15;222870;1269;22532;-73
2022/03/19 13:59:35;;;;;;;10.30;5.70;;;;;;;9.04;27.27;100909.91;222637;1270;22802;-71
2022/03/19 14:04:40;;;;;;;8.50;4.90;;;;;;;9.03;27.47;100910.79;222767;1270;22678;-71
2022/03/19 14:09:52;;;;;;;7.30;4.60;;;;;;;9.03;27.41;100917.41;222693;1268;22559;-71
2022/03/19 14:15:06;;;;;;;8.00;5.70;;;;;;;9.04;27.22;100915.91;222456;1271;22782;-71
2022/03/19 14:20:28;;;;;;;8.80;5.20;;;;;;;9.03;27.46;100918.35;221498;1269;22986;-71
2022/03/19 14:25:36;;;;;;;8.30;5.10;;;;;;;8.93;27.00;100923.20;222699;1271;25329;-71
2022/03/19 14:30:40;;;;;;;8.70;5.20;;;;;;;8.83;27.15;100921.27;222593;1271;24274;-71
2022/03/19 14:36:07;;;;;;;8.40;5.20;;;;;;;8.78;27.25;100918.87;222684;1271;22582;-71
2022/03/19 14:41:19;;;;;;;10.10;5.50;;;;;;;8.74;27.16;100918.01;222815;1269;25397;-71
2022/03/19 14:46:25;;;;;;;6.80;4.90;;;;;;;8.68;27.22;100919.42;222849;1271;25245;-69
2022/03/19 14:51:37;;;;;;;9.30;6.10;;;;;;;8.63;27.23;100911.76;222955;1271;22545;-70
2022/03/19 14:56:42;;;;;;;9.30;6.00;;;;;;;8.54;27.43;100914.33;222935;1271;22696;-72
2022/03/19 15:02:01;;;;;;;16.70;10.60;;;;;;;8.40;27.41;100922.13;222781;1271;25304;-72
2022/03/19 15:07:04;;;;;;;9.90;6.40;;;;;;;8.30;27.83;100919.46;222768;1271;22597;-72
2022/03/19 15:12:12;;;;;;;8.90;6.50;;;;;;;8.17;27.72;100919.17;222693;1270;25261;-72
2022/03/19 15:17:19;;;;;;;11.30;7.20;;;;;;;8.06;27.84;100915.95;222658;1270;25340;-72
2022/03/19 15:22:21;;;;;;;9.60;6.60;;;;;;;7.97;28.19;100914.91;222953;1270;22579;-72
2022/03/19 15:27:24;;;;;;;7.70;6.10;;;;;;;7.89;28.04;100913.38;222861;1270;25329;-72
2022/03/19 15:32:31;;;;;;;8.70;5.70;;;;;;;7.77;28.27;100914.33;222654;1271;25309;-71
2022/03/19 15:43:20;;;;;;;9.20;6.10;;;;;;;7.60;28.65;100922.92;222602;1270;23927;-72
2022/03/19 15:48:28;;;;;;;8.70;5.80;;;;;;;7.45;28.92;100922.40;222718;1270;22544;-72
2022/03/19 15:53:34;;;;;;;8.10;4.70;;;;;;;7.28;29.12;100929.05;222919;1270;22589;-75
2022/03/19 15:58:37;;;;;;;8.80;5.90;;;;;;;7.12;28.87;100935.33;222552;1270;22541;-72
2022/03/19 16:03:39;;;;;;;9.20;5.10;;;;;;;6.96;29.28;100939.73;222652;1270;22836;-71
2022/03/19 16:08:45;;;;;;;9.40;5.30;;;;;;;6.82;28.92;100947.58;222590;1271;22831;-71
2022/03/19 16:13:47;;;;;;;8.70;5.00;;;;;;;6.72;29.16;100949.63;221198;1270;22879;-72
2022/03/19 16:18:50;;;;;;;7.80;5.40;;;;;;;6.64;29.56;100951.44;222773;1271;22539;-72
2022/03/19 16:23:55;;;;;;;9.70;6.00;;;;;;;6.45;29.81;100951.51;222715;1270;24160;-72
2022/03/19 16:29:10;;;;;;;9.60;5.80;;;;;;;6.27;30.57;100966.85;222585;1271;22583;-72
2022/03/19 16:34:21;;;;;;;11.40;6.50;;;;;;;6.09;31.11;100972.64;222678;1270;23133;-71
2022/03/19 16:39:27;;;;;;;11.20;6.40;;;;;;;5.93;30.80;100974.12;222682;1268;22464;-72
2022/03/19 16:44:30;;;;;;;9.30;5.90;;;;;;;5.73;30.88;100979.65;222638;1271;25909;-71
2022/03/19 16:50:03;;;;;;;12.70;6.00;;;;;;;5.61;31.48;100980.64;222932;1269;25372;-72
2022/03/19 16:55:09;;;;;;;12.70;7.00;;;;;;;5.47;31.64;100982.08;222934;1271;22572;-71
2022/03/19 17:00:17;;;;;;;13.00;7.20;;;;;;;5.32;31.76;100987.18;222757;1270;24251;-72
2022/03/19 17:05:45;;;;;;;10.60;6.80;;;;;;;5.15;32.03;100992.23;222713;1271;22562;-72
2022/03/19 17:10:54;;;;;;;;;;;;;;;5.00;32.17;100989.67;222615;1270;22659;-72
2022/03/19 17:16:03;;;;;;;10.30;6.00;;;;;;;4.87;32.30;100992.95;222434;1271;23660;-72
2022/03/19 17:21:06;;;;;;;11.40;6.30;;;;;;;4.79;32.05;101000.72;222712;1268;22563;-72
2022/03/19 17:26:08;;;;;;;9.80;5.40;;;;;;;4.74;32.22;100999.40;222616;1270;22478;-72
2022/03/19 17:31:11;;;;;;;10.30;6.00;;;;;;;4.65;32.36;101005.48;222452;1270;22464;-71
2022/03/19 17:36:17;;;;;;;8.70;5.40;;;;;;;4.55;32.08;101009.23;222669;1270;22525;-72
2022/03/19 17:41:20;;;;;;;8.40;6.20;;;;;;;4.54;32.24;101009.17;222624;1270;22661;-72
2022/03/19 17:46:23;;;;;;;10.30;6.70;;;;;;;4.47;32.30;101012.73;222672;1270;22580;-72
2022/03/19 17:51:40;;;;;;;11.80;6.80;;;;;;;4.40;32.31;101020.69;222563;1270;23111;-72
2022/03/19 17:56:50;;;;;;;9.60;6.60;;;;;;;4.37;32.38;101020.34;222657;1270;22475;-72
2022/03/19 18:01:53;;;;;;;12.20;6.70;;;;;;;4.28;32.50;101022.66;222143;1271;22471;-71
2022/03/19 18:06:59;;;;;;;12.20;7.20;;;;;;;4.19;32.71;101026.11;222626;1270;22572;-72
2022/03/19 18:12:02;;;;;;;13.60;7.90;;;;;;;4.09;32.88;101020.40;223034;1270;24277;-72
2022/03/19 18:17:06;;;;;;;13.30;8.20;;;;;;;3.98;32.86;101020.33;222778;1270;25374;-72
2022/03/19 18:22:25;;;;;;;12.90;7.50;;;;;;;3.91;33.18;101025.56;222404;1270;22674;-72
2022/03/19 18:28:06;;;;;;;14.80;7.70;;;;;;;3.85;33.46;101028.98;222656;1269;24379;-72
2022/03/19 18:33:23;;;;;;;15.50;8.40;;;;;;;3.74;33.70;101028.45;222794;1270;24210;-72
2022/03/19 18:38:33;;;;;;;14.60;8.60;;;;;;;3.68;33.90;101031.30;222634;1270;24787;-72
2022/03/19 18:43:43;;;;;;;15.90;9.60;;;;;;;3.55;33.85;101028.20;222519;1270;22612;-73
2022/03/19 18:48:52;;;;;;;15.90;8.40;;;;;;;3.41;34.35;101034.17;222630;1268;24310;-72
2022/03/19 18:53:55;;;;;;;19.70;10.70;;;;;;;3.27;34.66;101036.84;222717;1270;22606;-72
2022/03/19 18:58:58;;;;;;;20.50;10.70;;;;;;;3.09;35.01;101037.75;222691;1270;22583;-72
2022/03/19 19:04:19;;;;;;;18.00;10.30;;;;;;;2.94;35.21;101040.07;222688;1270;23704;-72
2022/03/19 19:09:21;;;;;;;19.40;10.30;;;;;;;2.87;35.75;101041.98;222599;1270;24253;-72
2022/03/19 19:14:26;;;;;;;18.50;10.50;;;;;;;2.83;35.98;101045.15;222478;1270;24252;-72
2022/03/19 19:19:31;;;;;;;25.20;11.70;;;;;;;2.72;36.31;101051.27;222125;1271;23838;-72
2022/03/19 19:24:40;;;;;;;21.80;12.00;;;;;;;2.62;36.48;101054.08;222042;1270;575568;-72
2022/03/19 19:29:42;;;;;;;21.90;11.30;;;;;;;2.59;36.70;101055.66;222630;1270;22588;-72
2022/03/19 19:34:53;;;;;;;19.60;11.30;;;;;;;2.60;36.99;101065.40;222765;1270;22576;-72
2022/03/19 19:39:59;;;;;;;23.30;11.90;;;;;;;2.61;37.25;101065.87;222572;1270;24232;-72
2022/03/19 19:45:22;;;;;;;23.10;11.80;;;;;;;2.66;37.43;101069.20;222371;1270;22693;-72
2022/03/19 19:50:30;;;;;;;23.00;11.60;;;;;;;2.69;37.67;101069.27;222568;1270;22828;-71
2022/03/19 19:55:33;;;;;;;22.50;11.70;;;;;;;2.69;37.82;101073.51;222505;1270;22605;-73
2022/03/19 20:00:37;;;;;;;20.20;11.20;;;;;;;2.71;38.05;101068.68;222505;1270;23869;-72
2022/03/19 20:05:44;;;;;;;20.30;11.60;;;;;;;2.74;38.35;101065.59;222802;1270;24955;-74
2022/03/19 20:10:47;;;;;;;22.80;12.50;;;;;;;2.67;38.43;101066.87;222693;1270;22709;-71
2022/03/19 20:15:57;;;;;;;24.70;11.40;;;;;;;2.61;38.94;101068.52;222594;1270;22682;-72
2022/03/19 20:21:01;;;;;;;25.20;12.60;;;;;;;2.52;39.16;101069.61;222544;1270;22655;-71
2022/03/19 20:26:06;;;;;;;22.70;12.20;;;;;;;2.44;39.37;101069.15;222745;1270;23386;-71
2022/03/19 20:31:09;;;;;;;22.40;12.80;;;;;;;2.33;39.64;101062.33;222637;1270;24269;-72
2022/03/19 20:36:11;;;;;;;26.20;13.50;;;;;;;2.25;39.93;101062.58;222552;1270;25349;-73
2022/03/19 20:41:19;;;;;;;31.60;14.10;;;;;;;2.13;40.26;101053.13;222594;1270;23273;-71
2022/03/19 20:46:23;;;;;;;22.60;12.60;;;;;;;2.03;40.55;101053.51;222753;1270;25362;-73
2022/03/19 20:51:26;;;;;;;24.90;13.80;;;;;;;1.94;41.05;101051.64;222668;1269;24393;-72
2022/03/19 20:56:28;;;;;;;23.30;12.50;;;;;;;1.86;41.26;101037.85;222754;1268;24267;-72
2022/03/19 21:01:30;;;;;;;23.80;13.50;;;;;;;1.87;41.23;101037.08;222898;1268;25815;-72
2022/03/19 21:06:33;;;;;;;28.40;14.00;;;;;;;1.84;41.51;101038.69;222845;1268;25882;-72
2022/03/19 21:11:38;;;;;;;29.10;13.90;;;;;;;1.78;41.66;101035.35;222685;1268;22527;-71
2022/03/19 21:16:51;;;;;;;32.10;16.00;;;;;;;1.64;42.10;101035.14;222843;1268;22565;-72
2022/03/19 21:21:56;;;;;;;33.50;16.60;;;;;;;1.48;42.24;101029.70;222560;1269;24890;-71
2022/03/19 21:26:58;;;;;;;34.50;16.50;;;;;;;1.35;42.31;101033.92;222663;1269;24367;-72
2022/03/19 21:32:01;;;;;;;28.20;13.90;;;;;;;1.28;42.64;101037.80;222497;1270;25580;-72
2022/03/19 21:37:04;;;;;;;29.80;15.10;;;;;;;1.21;42.86;101038.17;222629;1269;22662;-72
2022/03/19 21:42:09;;;;;;;28.60;14.80;;;;;;;1.23;43.40;101033.39;222598;1270;22681;-71
2022/03/19 21:47:15;;;;;;;27.60;14.90;;;;;;;1.17;43.25;101041.71;222770;1270;24445;-72
2022/03/19 21:52:42;;;;;;;;;;;;;;;;;;;;;
2022/03/19 21:57:51;;;;;;;27.60;13.70;;;;;;;0.81;43.71;101053.23;222540;1267;22657;-71
2022/03/19 22:03:01;;;;;;;26.80;14.20;;;;;;;0.69;44.29;101051.77;222716;1270;24879;-71
2022/03/19 22:08:05;;;;;;;30.60;15.20;;;;;;;0.61;44.54;101056.70;222839;1270;23803;-73
2022/03/19 22:13:13;;;;;;;27.90;14.80;;;;;;;0.53;44.90;101060.55;222548;1271;22693;-72
2022/03/19 22:18:15;;;;;;;27.40;14.70;;;;;;;0.48;44.82;101062.07;222547;1270;24266;-71
2022/03/19 22:23:22;;;;;;;30.80;15.20;;;;;;;0.45;45.06;101064.33;222565;1270;22658;-72
2022/03/19 22:29:17;;;;;;;26.00;13.50;;;;;;;0.47;44.91;101064.85;222635;1271;23033;-71
2022/03/19 22:34:34;;;;;;;27.80;14.10;;;;;;;0.57;44.39;101066.98;222671;1270;22663;-71
2022/03/19 22:39:58;;;;;;;30.80;15.20;;;;;;;0.63;44.30;101067.17;222592;1270;22542;-73
2022/03/19 22:45:01;;;;;;;30.50;15.40;;;;;;;0.57;44.65;101075.20;222625;1269;25207;-72
2022/03/19 22:50:16;;;;;;;29.20;14.20;;;;;;;0.46;45.04;101086.17;222696;1270;22584;-72
2022/03/19 22:55:39;;;;;;;26.80;13.80;;;;;;;0.41;45.21;101081.14;222435;1271;22584;-71
2022/03/19 23:01:02;;;;;;;27.90;14.40;;;;;;;0.31;45.35;101085.05;222529;1271;25260;-71
2022/03/19 23:06:06;;;;;;;26.30;14.40;;;;;;;0.24;45.36;101085.40;222743;1270;22935;-70
2022/03/19 23:11:28;;;;;;;28.10;15.30;;;;;;;0.11;45.45;101086.80;222488;1270;22536;-72
2022/03/19 23:16:34;;;;;;;27.30;14.50;;;;;;;-0.08;45.24;101081.73;222574;1270;22625;-71
2022/03/19 23:22:00;;;;;;;30.50;15.60;;;;;;;-0.14;45.59;101079.06;222545;1270;22742;-72
2022/03/19 23:27:03;;;;;;;33.20;15.90;;;;;;;-0.13;45.45;101082.85;222446;1270;22848;-70
2022/03/19 23:32:39;;;;;;;32.60;15.40;;;;;;;-0.15;45.36;101080.44;222504;1271;24295;-71
2022/03/19 23:37:52;;;;;;;34.40;16.30;;;;;;;-0.21;45.37;101071.84;221103;1268;23061;-72
2022/03/19 23:42:54;;;;;;;28.30;14.70;;;;;;;-0.21;45.14;101077.85;222564;1270;22600;-71
2022/03/19 23:47:56;;;;;;;29.40;15.60;;;;;;;-0.22;45.16;101078.94;222479;1270;24201;-71
2022/03/19 23:53:01;;;;;;;35.90;16.70;;;;;;;-0.24;45.09;101082.65;222217;1271;23807;-70
2022/03/19 23:58:09;;;;;;;36.30;17.40;;;;;;;-0.34;45.24;101082.14;222554;1271;22592;-71
